Time;durP1;ratioP1;P1;durP2;ratioP2;P2;SDS_P1;SDS_P2;PMS_P1;PMS_P2;Temp;Humidity;BMP_temperature;BMP_pressure;BME280_temperature;BME280_humidity;BME280_pressure;Samples;Min_cycle;Max_cycle;Signal;HPM_P1;HPM_P2
2022/04/09 00:01:04;;;;;;;10.90;2.17;;;;;;;13.02;67.15;100996.75;2079260;28;20099;-73
2022/04/09 00:02:27;;;;;;;6.10;1.77;;;;;;;13.01;67.24;100995.88;2077854;28;20422;-74
2022/04/09 00:03:50;;;;;;;7.00;1.75;;;;;;;12.99;67.26;101002.03;2068507;28;20046;-74
2022/04/09 00:05:15;;;;;;;7.07;1.90;;;;;;;12.93;67.38;100989.59;2077231;28;20080;-74
2022/04/09 00:06:37;;;;;;;10.63;1.90;;;;;;;12.86;67.56;100995.75;2071869;28;20046;-74
2022/04/09 00:08:00;;;;;;;6.75;1.38;;;;;;;12.81;67.75;100996.53;2070420;28;20660;-74
2022/04/09 00:09:22;;;;;;;8.98;1.90;;;;;;;12.77;67.98;100990.34;2072596;28;20115;-74
2022/04/09 00:10:45;;;;;;;13.70;2.28;;;;;;;12.82;67.97;100998.31;2066891;28;20042;-74
2022/04/09 00:12:08;;;;;;;6.90;2.10;;;;;;;12.86;68.15;100994.84;2076615;28;20616;-74
2022/04/09 00:13:30;;;;;;;10.52;2.10;;;;;;;12.91;68.00;100998.44;2071167;28;20140;-74
2022/04/09 00:14:53;;;;;;;9.52;2.13;;;;;;;12.95;67.96;100997.56;2075109;28;20478;-74
2022/04/09 00:16:16;;;;;;;6.47;2.08;;;;;;;12.96;67.78;100994.06;2077627;28;20482;-74
2022/04/09 00:17:39;;;;;;;6.90;1.95;;;;;;;12.96;67.73;100991.41;2085727;28;20057;-74
2022/04/09 00:19:02;;;;;;;10.20;1.65;;;;;;;12.93;67.90;100986.94;2080213;28;20100;-74
2022/04/09 00:20:24;;;;;;;6.10;1.80;;;;;;;12.94;67.71;100986.09;2076042;28;20071;-74
2022/04/09 00:21:47;;;;;;;5.10;1.67;;;;;;;12.93;67.55;100979.00;2092758;28;20079;-74
2022/04/09 00:23:10;;;;;;;8.73;1.90;;;;;;;12.91;67.20;100988.72;2085901;28;20041;-74
2022/04/09 00:24:33;;;;;;;8.93;1.70;;;;;;;12.93;67.22;100983.44;2076705;28;20506;-75
2022/04/09 00:25:55;;;;;;;6.85;1.40;;;;;;;12.90;67.17;100986.06;2076716;28;20143;-74
2022/04/09 00:27:18;;;;;;;7.65;1.65;;;;;;;12.85;67.34;100980.72;2078973;28;20735;-75
2022/04/09 00:28:40;;;;;;;9.82;1.98;;;;;;;12.86;67.34;100992.19;2071868;28;20057;-75
2022/04/09 00:30:03;;;;;;;9.77;2.08;;;;;;;12.87;67.41;100994.84;2066101;28;20144;-74
2022/04/09 00:31:25;;;;;;;6.10;1.90;;;;;;;12.88;67.34;100985.13;2066724;28;20045;-75
2022/04/09 00:32:48;;;;;;;8.32;2.10;;;;;;;12.85;67.49;100990.41;2083052;28;20057;-75
2022/04/09 00:34:10;;;;;;;8.60;2.05;;;;;;;12.74;67.74;100987.66;2070064;28;20560;-74
2022/04/09 00:35:35;;;;;;;4.78;1.52;;;;;;;12.67;68.17;100991.09;2073419;28;20486;-75
2022/04/09 00:36:57;;;;;;;9.77;1.67;;;;;;;12.63;68.51;100994.59;2077356;28;20065;-75
2022/04/09 00:38:20;;;;;;;18.55;1.88;;;;;;;12.66;68.73;100984.94;2079978;28;20038;-74
2022/04/09 00:39:41;;;;;;;9.82;2.13;;;;;;;12.72;68.81;100984.13;2076172;28;20088;-75
2022/04/09 00:41:04;;;;;;;8.35;2.30;;;;;;;12.70;68.79;100980.56;2075524;28;20053;-75
2022/04/09 00:42:25;;;;;;;6.18;1.83;;;;;;;12.67;68.65;100977.84;2069480;28;20064;-75
2022/04/09 00:43:48;;;;;;;8.98;2.20;;;;;;;12.60;68.63;100987.50;2070364;28;20050;-75
2022/04/09 00:45:10;;;;;;;7.90;2.03;;;;;;;12.62;68.58;100985.75;2068753;28;20152;-74
2022/04/09 00:46:33;;;;;;;5.72;1.45;;;;;;;12.66;68.38;100979.66;2067827;28;20714;-75
2022/04/09 00:47:56;;;;;;;14.82;2.17;;;;;;;12.70;68.21;100972.59;2073375;28;20053;-75
2022/04/09 00:49:20;;;;;;;6.10;1.40;;;;;;;12.69;68.17;100969.06;2068980;28;20457;-75
2022/04/09 00:50:44;;;;;;;9.20;2.03;;;;;;;12.73;68.18;100970.00;2074493;28;20054;-74
2022/04/09 00:52:07;;;;;;;9.63;2.50;;;;;;;12.72;68.28;100958.50;2085273;28;20057;-75
2022/04/09 00:53:35;;;;;;;9.45;1.95;;;;;;;12.74;68.30;100955.84;2063572;28;20064;-75
2022/04/09 00:54:58;;;;;;;6.85;1.63;;;;;;;12.74;68.30;100955.84;2083156;28;20103;-74
2022/04/09 00:56:24;;;;;;;8.45;2.22;;;;;;;12.73;68.32;100954.09;2071023;28;20506;-75
2022/04/09 00:57:48;;;;;;;5.88;1.25;;;;;;;12.68;68.46;100955.78;2077672;28;20053;-74
2022/04/09 00:59:11;;;;;;;6.50;1.80;;;;;;;12.65;68.44;100948.72;2067609;28;20046;-74
2022/04/09 01:00:34;;;;;;;4.10;1.60;;;;;;;12.68;68.57;100950.50;2078511;28;20068;-74
2022/04/09 01:01:57;;;;;;;8.38;1.58;;;;;;;12.68;68.47;100951.38;2083941;28;20048;-74
2022/04/09 01:03:19;;;;;;;9.95;2.40;;;;;;;12.68;68.58;100951.38;2077233;28;20123;-74
2022/04/09 01:04:43;;;;;;;10.48;3.20;;;;;;;12.71;68.88;100951.44;2067074;28;20056;-74
2022/04/09 01:06:10;;;;;;;11.25;1.92;;;;;;;12.69;68.58;100947.88;2074540;28;20053;-74
2022/04/09 01:07:34;;;;;;;9.10;2.45;;;;;;;12.61;68.70;100953.97;2069328;28;20046;-74
2022/04/09 01:08:56;;;;;;;7.07;1.90;;;;;;;12.53;68.80;100958.31;2065846;28;20136;-75
2022/04/09 01:10:18;;;;;;;5.18;1.60;;;;;;;12.45;69.08;100965.28;2074737;28;20140;-74
2022/04/09 01:11:41;;;;;;;9.95;2.70;;;;;;;12.41;69.34;100964.34;2071361;28;20049;-74
2022/04/09 01:13:04;;;;;;;9.10;2.15;;;;;;;12.43;69.43;100956.41;2077317;28;20493;-74
2022/04/09 01:14:28;;;;;;;8.50;1.67;;;;;;;12.46;69.33;100952.06;2066408;28;20046;-74
2022/04/09 01:15:50;;;;;;;6.43;1.65;;;;;;;12.49;69.18;100957.38;2082965;28;20045;-75
2022/04/09 01:17:12;;;;;;;6.80;2.10;;;;;;;12.47;69.02;100951.16;2074411;28;20046;-74
2022/04/09 01:18:37;;;;;;;6.30;1.80;;;;;;;12.47;69.01;100955.59;2069097;28;20042;-74
2022/04/09 01:20:14;;;;;;;4.35;1.95;;;;;;;12.44;68.96;100951.16;2066051;28;20053;-74
2022/04/09 01:21:40;;;;;;;7.53;1.98;;;;;;;12.48;68.87;100952.06;2079101;28;20080;-74
2022/04/09 01:23:05;;;;;;;12.70;3.28;;;;;;;12.51;68.95;100942.41;2076958;28;20053;-74
2022/04/09 01:24:28;;;;;;;10.55;2.97;;;;;;;12.49;68.76;100938.84;2061004;28;20525;-74
2022/04/09 01:25:50;;;;;;;8.25;2.13;;;;;;;12.51;68.78;100947.69;2073957;28;20103;-74
2022/04/09 01:27:12;;;;;;;12.95;2.17;;;;;;;12.47;68.86;100948.50;2068579;28;20133;-74
2022/04/09 01:28:35;;;;;;;5.22;1.80;;;;;;;12.39;69.01;100952.88;2066352;28;20076;-74
2022/04/09 01:29:58;;;;;;;8.48;2.47;;;;;;;12.34;69.13;100947.50;2066655;28;20057;-74
2022/04/09 01:31:21;;;;;;;10.70;2.13;;;;;;;12.31;69.15;100943.94;2068280;28;20120;-74
2022/04/09 01:32:43;;;;;;;6.60;1.75;;;;;;;12.31;69.19;100943.94;2067976;28;20081;-74
2022/04/09 01:34:05;;;;;;;5.32;1.55;;;;;;;12.32;69.23;100940.44;2081792;28;20532;-74
2022/04/09 01:35:28;;;;;;;5.25;1.88;;;;;;;12.34;69.18;100938.66;2077059;28;20490;-75
2022/04/09 01:36:50;;;;;;;5.85;1.70;;;;;;;12.36;69.10;100934.28;2074692;28;20128;-75
2022/04/09 01:38:15;;;;;;;5.85;2.30;;;;;;;12.40;69.06;100925.53;2066970;28;20050;-75
2022/04/09 01:39:38;;;;;;;8.05;1.90;;;;;;;12.42;68.84;100918.47;2077432;28;20506;-74
2022/04/09 01:41:00;;;;;;;9.68;2.20;;;;;;;12.46;68.75;100922.94;2068894;28;20050;-74
2022/04/09 01:42:26;;;;;;;10.05;2.53;;;;;;;12.44;68.77;100921.13;2076282;28;20563;-74
2022/04/09 01:43:51;;;;;;;6.10;1.95;;;;;;;12.44;68.72;100914.06;2066923;28;20465;-74
2022/04/09 01:45:13;;;;;;;7.57;1.92;;;;;;;12.46;68.78;100920.28;2065492;28;20108;-75
2022/04/09 01:46:36;;;;;;;8.30;1.90;;;;;;;12.48;68.96;100915.88;2075305;28;20502;-74
2022/04/09 01:47:58;;;;;;;5.57;1.80;;;;;;;12.50;69.01;100921.19;2070148;28;20508;-74
2022/04/09 01:49:20;;;;;;;3.60;1.45;;;;;;;12.44;69.00;100921.13;2076347;28;20436;-74
2022/04/09 01:50:43;;;;;;;10.80;1.60;;;;;;;12.27;69.33;100919.16;2080471;28;20501;-74
2022/04/09 01:52:06;;;;;;;9.32;1.85;;;;;;;12.17;69.87;100919.97;2071160;28;20133;-74
2022/04/09 01:53:30;;;;;;;10.40;1.92;;;;;;;12.12;70.13;100918.13;2066587;28;20057;-74
2022/04/09 01:54:51;;;;;;;4.78;2.08;;;;;;;12.11;70.19;100919.00;2076101;28;20063;-74
2022/04/09 01:56:15;;;;;;;7.22;1.77;;;;;;;12.10;70.00;100911.94;2069489;28;20069;-74
2022/04/09 01:57:38;;;;;;;6.60;1.52;;;;;;;12.10;69.80;100922.50;2075891;28;20080;-73
2022/04/09 01:59:03;;;;;;;6.10;1.80;;;;;;;12.11;69.61;100926.94;2072715;28;20057;-74
2022/04/09 02:00:27;;;;;;;6.25;1.88;;;;;;;12.13;69.25;100917.25;2067381;28;20041;-75
2022/04/09 02:01:51;;;;;;;9.07;1.70;;;;;;;12.14;69.18;100914.63;2061385;28;20055;-73
2022/04/09 02:03:13;;;;;;;11.57;2.10;;;;;;;12.17;69.15;100914.66;2065761;28;20136;-74
2022/04/09 02:04:37;;;;;;;8.35;1.95;;;;;;;12.19;69.07;100919.97;2075728;28;20061;-74
2022/04/09 02:05:59;;;;;;;3.88;1.67;;;;;;;12.18;68.93;100918.19;2062454;28;20050;-74
2022/04/09 02:07:22;;;;;;;4.68;1.33;;;;;;;12.17;68.84;100919.06;2075520;28;20050;-74
2022/04/09 02:08:47;;;;;;;7.28;1.90;;;;;;;12.17;68.90;100913.78;2064999;28;20595;-74
2022/04/09 02:10:10;;;;;;;4.40;1.35;;;;;;;12.14;68.81;100914.63;2076290;28;20061;-74
2022/04/09 02:11:36;;;;;;;9.20;2.38;;;;;;;12.14;68.92;100913.75;2072989;28;20088;-74
2022/04/09 02:12:57;;;;;;;5.28;1.63;;;;;;;12.14;69.04;100916.41;2067927;28;20053;-74
2022/04/09 02:14:20;;;;;;;13.52;2.40;;;;;;;12.10;68.87;100917.22;2076427;28;20045;-74
2022/04/09 02:15:42;;;;;;;5.85;1.30;;;;;;;12.08;69.03;100911.91;2073180;28;20525;-74
2022/04/09 02:17:04;;;;;;;6.65;1.75;;;;;;;12.11;69.05;100914.59;2067718;28;20116;-74
2022/04/09 02:18:26;;;;;;;8.23;1.75;;;;;;;12.11;69.02;100917.25;2070604;28;20050;-73
2022/04/09 02:19:49;;;;;;;9.02;2.40;;;;;;;12.13;69.15;100911.97;2075272;28;20123;-74
2022/04/09 02:21:11;;;;;;;5.60;1.80;;;;;;;12.13;69.03;100907.56;2078499;28;20046;-74
2022/04/09 02:22:36;;;;;;;7.18;1.63;;;;;;;12.14;69.11;100908.47;2078124;28;20560;-74
2022/04/09 02:24:00;;;;;;;4.30;1.52;;;;;;;12.16;69.07;100912.00;2081010;28;20149;-74
2022/04/09 02:25:23;;;;;;;9.23;1.70;;;;;;;12.16;69.04;100912.00;2071228;28;20561;-74
2022/04/09 02:26:46;;;;;;;10.70;3.15;;;;;;;12.17;68.99;100908.47;2068244;28;20056;-75
2022/04/09 02:28:09;;;;;;;9.15;1.88;;;;;;;12.15;69.05;100905.81;2078459;28;20041;-74
2022/04/09 02:29:32;;;;;;;6.55;1.90;;;;;;;12.11;69.15;100908.41;2070221;28;20046;-75
2022/04/09 02:30:54;;;;;;;7.20;2.17;;;;;;;12.11;69.15;100905.75;2076061;28;20549;-75
2022/04/09 02:32:29;;;;;;;4.97;1.40;;;;;;;12.08;69.39;100906.59;2071169;28;20120;-74
2022/04/09 02:33:53;;;;;;;6.60;1.60;;;;;;;12.10;69.62;100912.81;2075837;28;20072;-74
2022/04/09 02:35:17;;;;;;;6.93;2.08;;;;;;;12.12;69.42;100910.19;2067301;28;20060;-74
2022/04/09 02:36:40;;;;;;;6.68;1.75;;;;;;;12.10;69.47;100907.53;2070528;28;20061;-75
2022/04/09 02:38:04;;;;;;;4.35;1.52;;;;;;;12.03;69.63;100907.44;2074916;28;20042;-74
2022/04/09 02:39:30;;;;;;;4.68;1.70;;;;;;;11.96;69.85;100902.06;2064049;28;20097;-74
2022/04/09 02:40:55;;;;;;;7.40;1.90;;;;;;;11.95;69.98;100908.22;2067686;28;20095;-74
2022/04/09 02:42:19;;;;;;;5.70;1.92;;;;;;;11.94;69.99;100903.81;2076659;28;20143;-74
2022/04/09 02:43:43;;;;;;;6.93;2.20;;;;;;;11.94;69.94;100906.47;2064635;28;20050;-74
2022/04/09 02:45:06;;;;;;;7.43;1.58;;;;;;;11.95;69.82;100905.56;2068144;28;20049;-74
2022/04/09 02:46:30;;;;;;;7.57;1.90;;;;;;;11.95;69.72;100896.75;2062115;28;20053;-74
2022/04/09 02:47:54;;;;;;;5.47;1.88;;;;;;;11.95;69.73;100905.56;2070506;28;20092;-75
2022/04/09 02:49:20;;;;;;;10.27;1.98;;;;;;;11.96;69.71;100899.41;2072693;28;20053;-74
2022/04/09 02:50:42;;;;;;;3.95;1.70;;;;;;;11.95;69.73;100900.28;2064503;28;20056;-74
2022/04/09 02:52:07;;;;;;;10.30;2.13;;;;;;;11.96;69.74;100904.72;2076757;28;20466;-74
2022/04/09 02:53:30;;;;;;;3.60;1.60;;;;;;;11.96;69.74;100907.34;2075835;28;20041;-74
2022/04/09 02:54:55;;;;;;;11.05;1.92;;;;;;;11.98;69.81;100908.28;2075515;28;20060;-74
2022/04/09 02:56:18;;;;;;;10.82;3.20;;;;;;;11.98;69.86;100907.38;2070147;28;20570;-74
2022/04/09 02:57:40;;;;;;;5.47;2.25;;;;;;;11.95;70.00;100908.22;2076061;28;20099;-74
2022/04/09 02:59:04;;;;;;;10.32;1.70;;;;;;;11.95;69.90;100910.88;2078901;28;20132;-74
2022/04/09 03:00:27;;;;;;;3.20;1.55;;;;;;;11.96;70.00;100917.94;2069314;28;20116;-74
2022/04/09 03:01:48;;;;;;;8.32;2.05;;;;;;;11.99;70.18;100914.44;2070159;28;20077;-75
2022/04/09 03:03:12;;;;;;;6.88;1.70;;;;;;;12.03;70.33;100915.38;2069925;28;20046;-74
2022/04/09 03:04:45;;;;;;;7.10;1.50;;;;;;;12.03;70.16;100910.06;2069463;28;20145;-74
2022/04/09 03:06:07;;;;;;;7.07;2.10;;;;;;;11.98;70.10;100917.97;2062134;28;20046;-74
2022/04/09 03:07:34;;;;;;;7.35;1.90;;;;;;;11.85;70.42;100919.56;2074767;28;20109;-74
2022/04/09 03:08:56;;;;;;;9.45;1.52;;;;;;;11.75;70.58;100909.72;2069857;28;20050;-74
2022/04/09 03:10:20;;;;;;;2.65;1.00;;;;;;;11.65;70.81;100917.50;2070035;28;20049;-75
2022/04/09 03:11:43;;;;;;;7.80;1.73;;;;;;;11.52;71.08;100912.03;2064246;28;20138;-74
2022/04/09 03:13:04;;;;;;;3.22;1.00;;;;;;;11.45;71.51;100904.00;2072318;28;20122;-74
2022/04/09 03:14:27;;;;;;;7.32;1.40;;;;;;;11.42;71.84;100903.97;2072582;28;20041;-74
2022/04/09 03:15:51;;;;;;;10.23;1.92;;;;;;;11.48;71.98;100912.88;2075601;28;20045;-74
2022/04/09 03:17:15;;;;;;;8.82;2.30;;;;;;;11.58;71.93;100905.94;2072489;28;20074;-74
2022/04/09 03:18:38;;;;;;;4.20;1.77;;;;;;;11.65;71.62;100915.75;2067281;28;20057;-74
2022/04/09 03:20:01;;;;;;;8.75;2.70;;;;;;;11.70;71.42;100911.38;2069708;28;20070;-74
2022/04/09 03:21:25;;;;;;;5.03;1.58;;;;;;;11.76;71.17;100910.59;2065699;28;20070;-74
2022/04/09 03:22:48;;;;;;;5.40;2.13;;;;;;;11.81;70.88;100914.22;2070391;28;20061;-74
2022/04/09 03:24:19;;;;;;;8.25;1.85;;;;;;;11.81;70.90;100906.28;2069820;28;20042;-74
2022/04/09 03:25:44;;;;;;;12.88;2.50;;;;;;;11.85;70.85;100908.09;2066421;28;20437;-74
2022/04/09 03:27:08;;;;;;;8.63;1.90;;;;;;;11.86;70.76;100909.88;2070389;28;20137;-74
2022/04/09 03:28:31;;;;;;;13.15;2.50;;;;;;;11.88;70.92;100905.50;2075602;28;20486;-74
2022/04/09 03:29:54;;;;;;;7.57;2.05;;;;;;;11.89;70.87;100904.63;2072492;28;20074;-74
2022/04/09 03:31:16;;;;;;;5.03;2.05;;;;;;;11.90;70.82;100903.75;2083863;28;20144;-74
2022/04/09 03:32:40;;;;;;;14.88;2.20;;;;;;;11.90;70.94;100912.56;2071464;28;20064;-74
2022/04/09 03:34:06;;;;;;;6.43;2.25;;;;;;;11.85;70.87;100913.38;2067749;28;20042;-74
2022/04/09 03:35:30;;;;;;;8.45;1.55;;;;;;;11.81;70.89;100915.13;2066185;28;20052;-74
2022/04/09 03:36:53;;;;;;;5.45;1.60;;;;;;;11.81;70.70;100912.47;2061027;28;20108;-74
2022/04/09 03:38:16;;;;;;;6.50;2.28;;;;;;;11.78;70.70;100919.47;2062350;28;20046;-74
2022/04/09 03:39:44;;;;;;;11.00;2.22;;;;;;;11.71;70.70;100923.75;2069084;28;20501;-74
2022/04/09 03:41:09;;;;;;;4.45;2.03;;;;;;;11.71;70.92;100923.75;2067326;28;20046;-74
2022/04/09 03:42:52;;;;;;;7.43;2.03;;;;;;;11.69;70.90;100933.41;2087849;28;20069;-74
2022/04/09 03:44:15;;;;;;;6.60;2.40;;;;;;;11.70;71.01;100921.97;2069906;28;20041;-74
2022/04/09 03:45:43;;;;;;;9.38;1.75;;;;;;;11.74;70.89;100929.13;2075318;28;20068;-75
2022/04/09 03:47:06;;;;;;;9.73;2.50;;;;;;;11.77;70.90;100929.16;2076110;28;20539;-74
2022/04/09 03:48:32;;;;;;;9.10;3.17;;;;;;;11.77;70.84;100928.25;2079008;28;20045;-74
2022/04/09 03:49:55;;;;;;;8.98;2.75;;;;;;;11.74;70.71;100934.41;2071993;28;20049;-74
2022/04/09 03:51:19;;;;;;;11.95;4.05;;;;;;;11.74;70.72;100925.59;2069070;28;20084;-74
2022/04/09 03:52:42;;;;;;;9.85;2.67;;;;;;;11.70;70.66;100931.66;2070030;28;20069;-74
2022/04/09 03:54:05;;;;;;;6.70;2.20;;;;;;;11.63;70.90;100930.69;2065826;28;20061;-74
2022/04/09 03:55:28;;;;;;;9.63;1.80;;;;;;;11.58;71.13;100933.28;2061912;28;20049;-75
2022/04/09 03:56:54;;;;;;;8.45;2.10;;;;;;;11.59;71.12;100934.16;2075769;28;20060;-74
2022/04/09 03:58:23;;;;;;;9.55;2.40;;;;;;;11.59;71.18;100932.41;2061465;28;20395;-74
2022/04/09 03:59:48;;;;;;;5.25;1.80;;;;;;;11.60;71.20;100935.94;2060717;28;20092;-74
2022/04/09 04:01:10;;;;;;;8.27;2.83;;;;;;;11.65;71.08;100936.00;2069014;28;20137;-74
2022/04/09 04:02:34;;;;;;;9.07;4.10;;;;;;;11.70;70.86;100935.19;2066493;28;20100;-74
2022/04/09 04:03:58;;;;;;;13.88;6.05;;;;;;;11.74;70.84;100934.41;2065856;28;20049;-74
2022/04/09 04:05:22;;;;;;;5.70;2.17;;;;;;;11.72;70.85;100938.75;2065673;28;20062;-74
2022/04/09 04:06:44;;;;;;;7.72;2.50;;;;;;;11.73;71.05;100937.88;2068828;28;20104;-74
2022/04/09 04:08:09;;;;;;;4.75;1.90;;;;;;;11.78;71.25;100940.63;2069277;28;20054;-74
2022/04/09 04:09:31;;;;;;;4.20;1.98;;;;;;;11.84;71.26;100941.59;2074739;28;20099;-74
2022/04/09 04:10:56;;;;;;;9.85;2.20;;;;;;;11.91;71.54;100940.81;2076944;28;20053;-74
2022/04/09 04:12:28;;;;;;;5.07;1.60;;;;;;;11.96;71.70;100949.69;2076531;28;20041;-74
2022/04/09 04:13:51;;;;;;;8.55;1.50;;;;;;;12.01;71.83;100943.59;2069124;28;20046;-75
2022/04/09 04:15:15;;;;;;;10.82;1.95;;;;;;;12.08;71.95;100940.16;2069328;28;20048;-74
2022/04/09 04:16:41;;;;;;;14.27;2.53;;;;;;;12.19;72.11;100943.81;2065303;28;20049;-74
2022/04/09 04:18:05;;;;;;;6.85;2.15;;;;;;;12.30;72.20;100947.44;2069170;28;20042;-74
2022/04/09 04:19:30;;;;;;;6.35;2.50;;;;;;;12.42;72.35;100949.34;2070044;28;20057;-74
2022/04/09 04:20:53;;;;;;;6.80;2.45;;;;;;;12.50;72.46;100945.03;2077381;28;20049;-75
2022/04/09 04:22:16;;;;;;;8.75;2.03;;;;;;;12.54;72.46;100947.72;2083766;28;20145;-75
2022/04/09 04:23:39;;;;;;;14.25;2.67;;;;;;;12.59;72.54;100951.31;2068585;28;20241;-75
2022/04/09 04:25:28;;;;;;;9.18;1.80;;;;;;;12.71;72.82;100951.44;2079278;28;20069;-75
2022/04/09 04:26:51;;;;;;;9.70;2.40;;;;;;;12.87;72.92;100955.09;2080027;28;20704;-73
2022/04/09 04:28:19;;;;;;;5.72;1.80;;;;;;;13.02;72.90;100942.00;2074122;28;20050;-74
2022/04/09 04:29:43;;;;;;;5.80;1.83;;;;;;;13.13;72.83;100947.41;2074531;28;20045;-75
2022/04/09 04:31:06;;;;;;;5.47;1.55;;;;;;;13.22;72.79;100944.84;2079153;28;20650;-74
2022/04/09 04:32:29;;;;;;;7.25;2.15;;;;;;;13.32;72.66;100944.06;2069857;28;20739;-75
2022/04/09 04:33:53;;;;;;;8.45;2.00;;;;;;;13.46;72.71;100939.69;2076937;28;20072;-75
2022/04/09 04:35:16;;;;;;;5.60;1.35;;;;;;;13.61;72.50;100944.22;2082985;28;20413;-75
2022/04/09 04:36:39;;;;;;;8.27;1.95;;;;;;;13.74;72.31;100939.88;2071777;28;20050;-74
2022/04/09 04:38:01;;;;;;;5.75;1.60;;;;;;;13.89;72.09;100934.66;2079100;28;20058;-75
2022/04/09 04:39:27;;;;;;;7.63;1.92;;;;;;;14.02;71.99;100933.84;2073387;28;20126;-75
2022/04/09 04:40:51;;;;;;;4.55;1.58;;;;;;;14.14;71.92;100938.28;2060299;28;20880;-75
2022/04/09 04:42:12;;;;;;;6.95;1.55;;;;;;;14.25;71.77;100933.91;2064232;28;20128;-75
2022/04/09 04:43:37;;;;;;;7.32;1.80;;;;;;;14.41;71.71;100940.19;2072885;28;20070;-75
2022/04/09 04:45:01;;;;;;;7.47;1.60;;;;;;;14.53;71.34;100930.47;2068786;28;20073;-74
2022/04/09 04:46:24;;;;;;;5.18;1.70;;;;;;;14.66;71.41;100928.72;2074176;28;20052;-74
2022/04/09 04:47:47;;;;;;;7.78;1.45;;;;;;;14.81;71.19;100928.75;2074333;28;20050;-74
2022/04/09 04:49:13;;;;;;;6.60;1.73;;;;;;;14.87;70.75;100923.44;2067856;28;20045;-74
2022/04/09 04:50:38;;;;;;;11.55;1.77;;;;;;;14.93;70.40;100914.59;2066686;28;20046;-75
2022/04/09 04:52:01;;;;;;;7.47;1.23;;;;;;;14.98;70.38;100924.34;2068488;28;20042;-75
2022/04/09 04:53:25;;;;;;;7.13;1.55;;;;;;;15.07;70.39;100921.69;2069276;28;20061;-74
2022/04/09 04:54:52;;;;;;;3.40;1.00;;;;;;;15.17;70.08;100919.88;2074761;28;20099;-75
2022/04/09 04:56:16;;;;;;;3.60;0.90;;;;;;;15.22;69.77;100910.16;2063302;28;20057;-75
2022/04/09 04:57:47;;;;;;;4.82;1.20;;;;;;;15.28;69.48;100915.47;2068126;28;20074;-75
2022/04/09 04:59:15;;;;;;;5.18;1.00;;;;;;;15.35;69.40;100919.00;2074953;28;20485;-75
2022/04/09 05:00:38;;;;;;;7.72;1.40;;;;;;;15.41;69.15;100917.22;2069528;28;20046;-75
2022/04/09 05:02:05;;;;;;;7.07;1.52;;;;;;;15.52;69.09;100917.19;2068856;28;20046;-75
2022/04/09 05:03:27;;;;;;;6.53;1.20;;;;;;;15.63;69.08;100925.16;2066578;28;20054;-75
2022/04/09 05:05:02;;;;;;;4.75;1.48;;;;;;;15.84;69.02;100927.78;2067717;28;20053;-75
2022/04/09 05:06:25;;;;;;;10.00;1.60;;;;;;;16.00;68.63;100931.28;2066556;28;20482;-75
2022/04/09 05:07:50;;;;;;;5.38;1.38;;;;;;;16.17;68.25;100935.63;2064879;28;20050;-74
2022/04/09 05:09:14;;;;;;;11.35;1.50;;;;;;;16.35;67.61;100940.88;2060632;28;20077;-74
2022/04/09 05:10:44;;;;;;;3.78;1.48;;;;;;;16.57;67.45;100932.75;2076641;28;20052;-75
2022/04/09 05:12:10;;;;;;;5.80;2.03;;;;;;;16.74;66.64;100939.78;2067689;28;20133;-74
2022/04/09 05:13:38;;;;;;;8.15;2.38;;;;;;;16.86;65.73;100930.84;2068430;28;20097;-74
2022/04/09 05:15:02;;;;;;;9.93;2.63;;;;;;;17.02;64.99;100928.91;2077115;28;20080;-75
2022/04/09 05:16:24;;;;;;;11.13;2.38;;;;;;;17.20;64.63;100936.75;2070790;28;20050;-74
2022/04/09 05:17:58;;;;;;;4.65;2.10;;;;;;;17.41;64.25;100928.56;2069844;28;20061;-74
2022/04/09 05:19:20;;;;;;;14.30;3.70;;;;;;;17.58;63.65;100928.41;2072368;28;20058;-75
2022/04/09 05:20:49;;;;;;;6.13;1.90;;;;;;;17.73;63.19;100924.69;2070618;28;20676;-75
2022/04/09 05:22:12;;;;;;;9.93;4.28;;;;;;;17.90;62.91;100922.75;2070227;28;20045;-74
2022/04/09 05:23:46;;;;;;;12.27;4.07;;;;;;;18.10;62.33;100917.16;2079377;28;20432;-75
2022/04/09 05:25:10;;;;;;;11.52;4.35;;;;;;;18.30;61.91;100920.44;2077790;28;20069;-74
2022/04/09 05:26:33;;;;;;;13.00;4.78;;;;;;;18.48;61.41;100921.97;2071190;28;20780;-75
2022/04/09 05:27:56;;;;;;;15.18;5.78;;;;;;;18.66;61.13;100924.41;2070645;28;20148;-75
2022/04/09 05:29:25;;;;;;;10.57;4.28;;;;;;;18.83;60.59;100929.53;2069033;28;20045;-75
2022/04/09 05:30:51;;;;;;;10.95;4.47;;;;;;;19.00;60.20;100930.13;2076621;28;20053;-74
2022/04/09 05:32:12;;;;;;;13.13;4.57;;;;;;;19.14;59.89;100928.09;2083678;28;20657;-74
2022/04/09 05:33:37;;;;;;;11.40;4.22;;;;;;;19.27;59.33;100939.50;2074950;28;20053;-74
2022/04/09 05:34:59;;;;;;;15.18;5.68;;;;;;;19.43;59.00;100931.13;2067227;28;20045;-75
2022/04/09 05:36:23;;;;;;;12.55;4.47;;;;;;;19.54;58.22;100931.00;2068531;28;20053;-75
2022/04/09 05:37:50;;;;;;;9.00;3.13;;;;;;;19.67;57.67;100928.97;2068930;28;20048;-75
2022/04/09 05:39:17;;;;;;;12.60;4.68;;;;;;;19.81;57.14;100922.44;2070719;28;20077;-75
2022/04/09 05:40:42;;;;;;;11.70;3.97;;;;;;;19.99;56.91;100925.66;2076491;28;20050;-75
2022/04/09 05:42:12;;;;;;;11.68;3.72;;;;;;;20.23;56.96;100931.38;2071470;28;20057;-74
2022/04/09 05:43:34;;;;;;;8.30;3.45;;;;;;;20.48;56.59;100925.53;2060169;28;20054;-75
2022/04/09 05:44:57;;;;;;;9.90;4.40;;;;;;;20.67;56.17;100929.56;2073084;28;20536;-75
2022/04/09 05:46:24;;;;;;;12.05;5.43;;;;;;;20.81;55.63;100927.41;2072095;28;20482;-75
2022/04/09 05:47:48;;;;;;;19.45;7.47;;;;;;;20.97;55.04;100933.31;2060555;28;20561;-75
2022/04/09 05:49:15;;;;;;;22.83;10.50;;;;;;;21.11;54.57;100930.28;2076845;28;20568;-74
2022/04/09 05:50:41;;;;;;;26.05;10.32;;;;;;;21.19;54.22;100931.91;2068680;28;20045;-75
2022/04/09 05:52:05;;;;;;;27.17;11.60;;;;;;;21.37;54.43;100931.44;2070709;28;20045;-75
2022/04/09 05:53:28;;;;;;;29.40;11.73;;;;;;;21.60;54.10;100940.66;2078670;28;20577;-75
2022/04/09 05:54:53;;;;;;;22.80;11.00;;;;;;;21.84;53.68;100940.00;2076484;28;20041;-75
2022/04/09 05:56:15;;;;;;;16.38;5.57;;;;;;;22.07;53.34;100942.06;2081263;28;20053;-75
2022/04/09 05:57:40;;;;;;;12.10;5.53;;;;;;;22.23;52.90;100941.59;2075742;28;20049;-75
2022/04/09 05:59:05;;;;;;;19.45;6.93;;;;;;;22.28;52.45;100930.69;2069192;28;20077;-75
2022/04/09 06:00:28;;;;;;;14.57;6.70;;;;;;;22.41;51.65;100929.38;2070068;28;20550;-75
2022/04/09 06:02:01;;;;;;;14.48;7.65;;;;;;;22.58;50.96;100929.75;2076197;28;20049;-75
2022/04/09 06:03:24;;;;;;;13.95;5.82;;;;;;;22.79;50.46;100938.09;2071847;28;20336;-75
2022/04/09 06:04:48;;;;;;;12.20;5.05;;;;;;;22.95;50.29;100939.38;2070475;28;20150;-75
2022/04/09 06:06:11;;;;;;;9.82;4.25;;;;;;;23.11;50.28;100929.84;2067741;28;20099;-75
2022/04/09 06:07:44;;;;;;;13.00;4.90;;;;;;;23.20;49.93;100932.25;2070526;28;20046;-76
2022/04/09 06:09:07;;;;;;;10.38;3.95;;;;;;;23.19;49.67;100927.78;2067979;28;20057;-76
2022/04/09 06:10:50;;;;;;;10.73;4.60;;;;;;;23.12;48.99;100928.94;2064899;28;20046;-75
2022/04/09 06:12:14;;;;;;;15.15;5.35;;;;;;;23.10;48.85;100925.44;2064598;28;20062;-75
2022/04/09 06:13:50;;;;;;;12.45;4.80;;;;;;;23.13;48.62;100927.13;2077806;28;20053;-75
2022/04/09 06:15:13;;;;;;;9.75;4.85;;;;;;;23.15;48.56;100925.25;2077609;28;20033;-75
2022/04/09 06:16:41;;;;;;;13.18;6.00;;;;;;;23.22;48.20;100925.00;2081174;28;20053;-75
2022/04/09 06:18:10;;;;;;;13.70;5.65;;;;;;;23.27;47.64;100930.22;2070974;28;20703;-75
2022/04/09 06:19:32;;;;;;;13.18;5.35;;;;;;;23.24;47.68;100924.94;2069017;28;20100;-75
2022/04/09 06:20:54;;;;;;;12.90;4.75;;;;;;;23.22;47.67;100929.50;2067316;28;20525;-75
2022/04/09 06:22:18;;;;;;;15.07;4.03;;;;;;;23.23;47.80;100925.91;2066696;28;20050;-75
2022/04/09 06:23:41;;;;;;;12.63;3.50;;;;;;;23.23;47.76;100920.50;2074465;28;20049;-75
2022/04/09 06:25:05;;;;;;;10.27;3.90;;;;;;;23.33;47.76;100917.44;2069730;28;20054;-75
2022/04/09 06:26:28;;;;;;;11.82;3.13;;;;;;;23.37;47.50;100915.50;2079425;28;20731;-75
2022/04/09 06:27:51;;;;;;;14.10;3.70;;;;;;;23.41;47.56;100918.06;2078324;28;20052;-75
2022/04/09 06:29:14;;;;;;;11.68;2.80;;;;;;;23.41;47.56;100919.88;2058309;28;20129;-76
2022/04/09 06:30:39;;;;;;;12.93;3.42;;;;;;;23.48;47.33;100918.75;2068105;28;20054;-75